createdAt,value
2022-08-16T00:01:27.000Z,290.71
2022-08-16T00:03:39.000Z,290.71
2022-08-16T00:05:06.000Z,290.71
2022-08-16T00:07:13.000Z,290.77
2022-08-16T00:08:41.000Z,290.77
2022-08-16T00:10:50.000Z,290.84
2022-08-16T00:12:17.000Z,290.84
2022-08-16T00:14:24.000Z,290.9
2022-08-16T00:17:19.000Z,290.84
2022-08-16T00:18:46.000Z,290.84
2022-08-16T00:20:53.000Z,290.9
2022-08-16T00:22:19.000Z,290.9
2022-08-16T00:24:29.000Z,290.9
2022-08-16T00:25:59.000Z,290.9
2022-08-16T00:28:48.000Z,290.84
2022-08-16T00:30:19.000Z,290.9
2022-08-16T00:32:33.000Z,290.77
2022-08-16T00:33:59.000Z,290.77
2022-08-16T00:36:08.000Z,290.71
2022-08-16T00:37:35.000Z,290.71
2022-08-16T00:40:03.000Z,290.65
2022-08-16T00:41:58.000Z,290.65
2022-08-16T00:44:04.000Z,290.71
2022-08-16T00:45:31.000Z,290.52
2022-08-16T00:47:40.000Z,290.52
2022-08-16T00:49:14.000Z,290.46
2022-08-16T00:51:23.000Z,290.4
2022-08-16T00:52:53.000Z,290.34
2022-08-16T00:55:00.000Z,290.34
2022-08-16T00:57:51.000Z,290.4
2022-08-16T00:59:24.000Z,290.4
2022-08-16T01:01:31.000Z,290.4
2022-08-16T01:03:00.000Z,290.4
2022-08-16T01:05:07.000Z,290.4
2022-08-16T01:06:36.000Z,290.46
2022-08-16T01:09:04.000Z,290.46
2022-08-16T01:10:32.000Z,290.59
2022-08-16T01:12:42.000Z,290.59
2022-08-16T01:14:08.000Z,290.59
2022-08-16T01:16:14.000Z,290.59
2022-08-16T01:17:44.000Z,290.59
2022-08-16T01:20:00.000Z,290.59
2022-08-16T01:21:48.000Z,290.59
2022-08-16T01:23:55.000Z,290.52
2022-08-16T01:25:25.000Z,290.52
2022-08-16T01:27:40.000Z,290.46
2022-08-16T01:29:08.000Z,290.46
2022-08-16T01:31:14.000Z,290.4
2022-08-16T01:32:41.000Z,290.4
2022-08-16T01:34:47.000Z,290.21
2022-08-16T01:37:45.000Z,290.15
2022-08-16T01:39:18.000Z,290.15
2022-08-16T01:41:27.000Z,290.09
2022-08-16T01:42:54.000Z,290.15
2022-08-16T01:45:00.000Z,290.09
2022-08-16T01:46:26.000Z,290.09
2022-08-16T01:48:43.000Z,290.09
2022-08-16T01:50:10.000Z,289.9
2022-08-16T01:53:09.000Z,289.9
2022-08-16T01:54:36.000Z,289.84
2022-08-16T01:56:44.000Z,289.9
2022-08-16T01:58:13.000Z,289.9
2022-08-16T02:00:25.000Z,289.77
2022-08-16T02:01:54.000Z,289.77
2022-08-16T02:04:04.000Z,289.71
2022-08-16T02:05:36.000Z,289.52
2022-08-16T02:07:46.000Z,289.46
2022-08-16T02:09:16.000Z,289.4
2022-08-16T02:11:23.000Z,289.4
2022-08-16T02:13:12.000Z,289.4
2022-08-16T02:15:18.000Z,289.34
2022-08-16T02:18:15.000Z,289.27
2022-08-16T02:19:43.000Z,289.27
2022-08-16T02:22:04.000Z,289.27
2022-08-16T02:23:58.000Z,289.34
2022-08-16T02:26:04.000Z,289.21
2022-08-16T02:27:32.000Z,289.15
2022-08-16T02:29:38.000Z,289.02
2022-08-16T02:31:06.000Z,289.09
2022-08-16T02:33:12.000Z,289.15
2022-08-16T02:34:39.000Z,289.09
2022-08-16T02:36:48.000Z,289.21
2022-08-16T02:38:15.000Z,289.15
2022-08-16T02:40:23.000Z,289.21
2022-08-16T02:41:50.000Z,289.21
2022-08-16T02:43:57.000Z,289.15
2022-08-16T02:45:24.000Z,289.02
2022-08-16T02:47:32.000Z,289.09
2022-08-16T02:49:26.000Z,289.02
2022-08-16T02:52:57.000Z,288.9
2022-08-16T02:54:23.000Z,288.84
2022-08-16T02:56:31.000Z,288.84
2022-08-16T02:59:22.000Z,288.65
2022-08-16T03:00:48.000Z,288.65
2022-08-16T03:02:56.000Z,288.52
2022-08-16T03:04:23.000Z,288.65
2022-08-16T03:06:56.000Z,288.71
2022-08-16T03:08:22.000Z,288.77
2022-08-16T03:10:57.000Z,288.77
2022-08-16T03:12:23.000Z,288.71
2022-08-16T03:14:34.000Z,288.65
2022-08-16T03:16:02.000Z,288.71
2022-08-16T03:18:08.000Z,288.65
2022-08-16T03:19:43.000Z,288.59
2022-08-16T03:22:03.000Z,288.52
2022-08-16T03:23:30.000Z,288.4
2022-08-16T03:25:40.000Z,288.59
2022-08-16T03:27:09.000Z,288.52
2022-08-16T03:29:15.000Z,288.52
2022-08-16T03:30:41.000Z,288.46
2022-08-16T03:32:48.000Z,288.52
2022-08-16T03:34:16.000Z,288.46
2022-08-16T03:36:22.000Z,288.34
2022-08-16T03:39:22.000Z,288.4
2022-08-16T03:40:48.000Z,288.46
2022-08-16T03:42:55.000Z,288.34
2022-08-16T03:44:45.000Z,288.34
2022-08-16T03:46:53.000Z,288.34
2022-08-16T03:48:22.000Z,288.21
2022-08-16T03:50:41.000Z,288.21
2022-08-16T03:52:24.000Z,288.21
2022-08-16T03:54:35.000Z,288.15
2022-08-16T03:56:02.000Z,288.09
2022-08-16T03:58:10.000Z,287.96
2022-08-16T03:59:37.000Z,288.02
2022-08-16T04:01:47.000Z,287.96
2022-08-16T04:03:18.000Z,287.96
2022-08-16T04:05:25.000Z,287.96
2022-08-16T04:06:55.000Z,287.96
2022-08-16T04:09:01.000Z,287.9
2022-08-16T04:10:27.000Z,287.9
2022-08-16T04:12:42.000Z,287.96
2022-08-16T04:14:19.000Z,288.02
2022-08-16T04:16:36.000Z,287.96
2022-08-16T04:19:27.000Z,288.02
2022-08-16T04:20:56.000Z,287.9
2022-08-16T04:23:03.000Z,287.96
2022-08-16T04:24:32.000Z,287.9
2022-08-16T04:26:38.000Z,288.02
2022-08-16T04:28:11.000Z,287.96
2022-08-16T04:31:18.000Z,287.9
2022-08-16T04:32:45.000Z,287.96
2022-08-16T04:34:53.000Z,288.02
2022-08-16T04:36:20.000Z,287.96
2022-08-16T04:38:26.000Z,287.84
2022-08-16T04:39:55.000Z,287.77
2022-08-16T04:42:01.000Z,287.77
2022-08-16T04:43:35.000Z,287.71
2022-08-16T04:47:14.000Z,287.65
2022-08-16T04:48:14.000Z,287.65
2022-08-16T04:49:56.000Z,287.65
2022-08-16T04:52:02.000Z,287.71
2022-08-16T04:53:58.000Z,287.77
2022-08-16T04:56:04.000Z,287.9
2022-08-16T04:57:36.000Z,287.84
2022-08-16T04:59:42.000Z,287.96
2022-08-16T05:02:27.000Z,287.96
2022-08-16T05:04:07.000Z,288.02
2022-08-16T05:06:24.000Z,288.09
2022-08-16T05:08:09.000Z,288.09
2022-08-16T05:10:34.000Z,288.15
2022-08-16T05:12:00.000Z,288.27
2022-08-16T05:14:08.000Z,288.34
2022-08-16T05:15:44.000Z,288.46
2022-08-16T05:17:53.000Z,288.59
2022-08-16T05:19:24.000Z,288.71
2022-08-16T05:21:39.000Z,288.71
2022-08-16T05:23:06.000Z,288.71
2022-08-16T05:25:15.000Z,288.84
2022-08-16T05:26:42.000Z,288.84
2022-08-16T05:30:28.000Z,288.9
2022-08-16T05:31:24.000Z,288.9
2022-08-16T05:32:54.000Z,288.96
2022-08-16T05:35:02.000Z,288.96
2022-08-16T05:36:30.000Z,289.09
2022-08-16T05:38:41.000Z,289.15
2022-08-16T05:40:07.000Z,289.21
2022-08-16T05:42:17.000Z,289.34
2022-08-16T05:45:02.000Z,289.52
2022-08-16T05:46:31.000Z,289.59
2022-08-16T05:48:37.000Z,289.71
2022-08-16T05:50:04.000Z,289.77
2022-08-16T05:52:22.000Z,289.77
2022-08-16T05:53:52.000Z,289.84
2022-08-16T05:55:59.000Z,289.9
2022-08-16T05:57:28.000Z,289.9
2022-08-16T05:59:39.000Z,289.96
2022-08-16T06:01:06.000Z,290.09
2022-08-16T06:03:14.000Z,290.09
2022-08-16T06:04:40.000Z,290.15
2022-08-16T06:06:49.000Z,290.34
2022-08-16T06:08:21.000Z,290.46
2022-08-16T06:10:36.000Z,290.59
2022-08-16T06:12:27.000Z,290.71
2022-08-16T06:14:33.000Z,290.71
2022-08-16T06:16:00.000Z,290.77
2022-08-16T06:18:06.000Z,290.9
2022-08-16T06:19:33.000Z,290.96
2022-08-16T06:21:40.000Z,291.02
2022-08-16T06:24:31.000Z,291.21
2022-08-16T06:26:20.000Z,291.27
2022-08-16T06:28:26.000Z,291.4
2022-08-16T06:30:01.000Z,291.52
2022-08-16T06:32:07.000Z,291.59
2022-08-16T06:33:51.000Z,291.77
2022-08-16T06:35:57.000Z,291.71
2022-08-16T06:37:24.000Z,291.84
2022-08-16T06:39:41.000Z,291.84
2022-08-16T06:41:14.000Z,291.9
2022-08-16T06:43:20.000Z,292.15
2022-08-16T06:44:52.000Z,292.15
2022-08-16T06:46:58.000Z,292.21
2022-08-16T06:48:27.000Z,292.27
2022-08-16T06:50:37.000Z,292.4
2022-08-16T06:52:06.000Z,292.46
2022-08-16T06:55:04.000Z,292.59
2022-08-16T06:56:37.000Z,292.65
2022-08-16T06:58:45.000Z,292.71
2022-08-16T07:00:12.000Z,292.71
2022-08-16T07:02:29.000Z,292.77
2022-08-16T07:05:22.000Z,292.9
2022-08-16T07:07:04.000Z,292.96
2022-08-16T07:09:14.000Z,293.09
2022-08-16T07:10:40.000Z,293.21
2022-08-16T07:12:46.000Z,293.15
2022-08-16T07:14:35.000Z,293.27
2022-08-16T07:16:43.000Z,293.34
2022-08-16T07:18:09.000Z,293.4
2022-08-16T07:20:15.000Z,293.46
2022-08-16T07:22:11.000Z,293.59
2022-08-16T07:24:43.000Z,293.77
2022-08-16T07:26:10.000Z,293.77
2022-08-16T07:28:29.000Z,293.84
2022-08-16T07:29:56.000Z,293.96
2022-08-16T07:32:02.000Z,294.15
2022-08-16T07:33:30.000Z,294.09
2022-08-16T07:35:58.000Z,294.15
2022-08-16T07:37:25.000Z,294.21
2022-08-16T07:39:33.000Z,294.27
2022-08-16T07:41:07.000Z,294.27
2022-08-16T07:43:15.000Z,294.09
2022-08-16T07:46:06.000Z,294.09
2022-08-16T07:48:04.000Z,294.27
2022-08-16T07:50:16.000Z,294.15
2022-08-16T07:52:22.000Z,294.34
2022-08-16T07:54:33.000Z,294.34
2022-08-16T07:56:03.000Z,294.34
2022-08-16T07:58:10.000Z,294.4
2022-08-16T07:59:58.000Z,294.4
2022-08-16T08:02:05.000Z,294.4
2022-08-16T08:03:36.000Z,294.4
2022-08-16T08:05:47.000Z,294.4
2022-08-16T08:07:14.000Z,294.46
2022-08-16T08:09:20.000Z,294.52
2022-08-16T08:10:47.000Z,294.52
2022-08-16T08:12:55.000Z,294.71
2022-08-16T08:14:23.000Z,294.84
2022-08-16T08:16:34.000Z,295.02
2022-08-16T08:18:01.000Z,295.09
2022-08-16T08:20:34.000Z,295.21
2022-08-16T08:22:01.000Z,295.27
2022-08-16T08:24:10.000Z,295.4
2022-08-16T08:27:04.000Z,295.52
2022-08-16T08:28:31.000Z,295.52
2022-08-16T08:30:39.000Z,295.4
2022-08-16T08:32:26.000Z,295.71
2022-08-16T08:35:05.000Z,295.4
2022-08-16T08:36:31.000Z,295.65
2022-08-16T08:38:38.000Z,295.84
2022-08-16T08:40:10.000Z,295.96
2022-08-16T08:42:17.000Z,295.46
2022-08-16T08:43:52.000Z,295.27
2022-08-16T08:45:58.000Z,295.09
2022-08-16T08:47:25.000Z,295.09
2022-08-16T08:49:31.000Z,295.34
2022-08-16T08:51:19.000Z,295.34
2022-08-16T08:53:26.000Z,295.71
2022-08-16T08:54:55.000Z,295.9
2022-08-16T08:57:01.000Z,295.9
2022-08-16T08:58:27.000Z,295.77
2022-08-16T09:00:38.000Z,295.65
2022-08-16T09:02:16.000Z,295.96
2022-08-16T09:04:23.000Z,296.02
2022-08-16T09:07:15.000Z,296.09
2022-08-16T09:08:43.000Z,296.27
2022-08-16T09:10:51.000Z,296.15
2022-08-16T09:12:27.000Z,296.02
2022-08-16T09:14:40.000Z,296.15
2022-08-16T09:16:15.000Z,296.21
2022-08-16T09:19:09.000Z,296.34
2022-08-16T09:20:36.000Z,296.46
2022-08-16T09:23:04.000Z,296.71
2022-08-16T09:24:31.000Z,296.59
2022-08-16T09:26:56.000Z,296.84
2022-08-16T09:28:22.000Z,296.77
2022-08-16T09:31:21.000Z,296.65
2022-08-16T09:32:48.000Z,296.9
2022-08-16T09:34:55.000Z,297.15
2022-08-16T09:36:23.000Z,297.27
2022-08-16T09:38:37.000Z,297.52
2022-08-16T09:40:05.000Z,297.59
2022-08-16T09:42:37.000Z,297.77
2022-08-16T09:44:23.000Z,297.96
2022-08-16T09:47:22.000Z,298.09
2022-08-16T09:50:13.000Z,298.27
2022-08-16T09:51:47.000Z,298.21
2022-08-16T09:53:54.000Z,298.09
2022-08-16T09:55:22.000Z,298.27
2022-08-16T09:57:29.000Z,298.52
2022-08-16T09:58:59.000Z,298.34
2022-08-16T10:01:11.000Z,298.46
2022-08-16T10:02:37.000Z,298.59
2022-08-16T10:04:52.000Z,298.71
2022-08-16T10:06:19.000Z,298.77
2022-08-16T10:08:26.000Z,298.77
2022-08-16T10:09:53.000Z,298.84
2022-08-16T10:12:00.000Z,298.84
2022-08-16T10:13:43.000Z,298.9
2022-08-16T10:15:50.000Z,299.02
2022-08-16T10:17:20.000Z,299.15
2022-08-16T10:19:28.000Z,299.4
2022-08-16T10:20:56.000Z,299.52
2022-08-16T10:23:02.000Z,299.71
2022-08-16T10:24:32.000Z,299.84
2022-08-16T10:26:38.000Z,299.59
2022-08-16T10:30:15.000Z,299.65
2022-08-16T10:31:50.000Z,299.77
2022-08-16T10:33:58.000Z,299.71
2022-08-16T10:35:24.000Z,299.71
2022-08-16T10:37:37.000Z,299.84
2022-08-16T10:39:03.000Z,299.96
2022-08-16T10:41:12.000Z,300.02
2022-08-16T10:42:41.000Z,299.84
2022-08-16T10:44:49.000Z,300.09
2022-08-16T10:46:19.000Z,300.15
2022-08-16T10:48:43.000Z,300.27
2022-08-16T10:50:11.000Z,300.21
2022-08-16T10:52:24.000Z,300.09
2022-08-16T10:53:56.000Z,300.21
2022-08-16T10:56:03.000Z,299.96
2022-08-16T10:58:17.000Z,300.15
2022-08-16T11:00:38.000Z,299.96
2022-08-16T11:02:04.000Z,300.15
2022-08-16T11:05:05.000Z,300.34
2022-08-16T11:06:33.000Z,300.4
2022-08-16T11:08:40.000Z,300.34
2022-08-16T11:11:35.000Z,300.46
2022-08-16T11:13:38.000Z,300.52
2022-08-16T11:16:10.000Z,299.77
2022-08-16T11:17:52.000Z,300.02
2022-08-16T11:21:10.000Z,300.52
2022-08-16T11:22:53.000Z,300.59
2022-08-16T11:25:00.000Z,300.59
2022-08-16T11:27:34.000Z,300.59
2022-08-16T11:31:13.000Z,299.96
2022-08-16T11:32:10.000Z,299.96
2022-08-16T11:33:39.000Z,300.34
2022-08-16T11:35:59.000Z,300.46
2022-08-16T11:37:53.000Z,300.65
2022-08-16T11:40:52.000Z,300.9
2022-08-16T11:42:18.000Z,300.9
2022-08-16T11:44:35.000Z,300.77
2022-08-16T11:46:17.000Z,300.9
2022-08-16T11:48:50.000Z,301.02
2022-08-16T11:50:16.000Z,300.77
2022-08-16T11:52:22.000Z,300.77
2022-08-16T11:53:52.000Z,300.84
2022-08-16T11:55:58.000Z,300.84
2022-08-16T11:58:45.000Z,300.84
2022-08-16T12:00:21.000Z,301.02
2022-08-16T12:02:54.000Z,301.27
2022-08-16T12:04:21.000Z,301.27
2022-08-16T12:06:29.000Z,301.46
2022-08-16T12:07:58.000Z,301.65
2022-08-16T12:10:09.000Z,301.65
2022-08-16T12:11:36.000Z,301.52
2022-08-16T12:13:42.000Z,301.65
2022-08-16T12:15:10.000Z,301.4
2022-08-16T12:17:16.000Z,301.52
2022-08-16T12:20:49.000Z,302.09
2022-08-16T12:22:19.000Z,301.9
2022-08-16T12:24:26.000Z,301.46
2022-08-16T12:25:52.000Z,301.02
2022-08-16T12:27:58.000Z,300.9
2022-08-16T12:29:27.000Z,301.09
2022-08-16T12:31:33.000Z,301.52
2022-08-16T12:33:00.000Z,301.65
2022-08-16T12:35:07.000Z,301.65
2022-08-16T12:37:58.000Z,301.65
2022-08-16T12:39:33.000Z,301.96
2022-08-16T12:41:39.000Z,302.27
2022-08-16T12:43:10.000Z,302.15
2022-08-16T12:45:16.000Z,302.27
2022-08-16T12:46:43.000Z,302.34
2022-08-16T12:48:49.000Z,302.52
2022-08-16T12:50:17.000Z,302.71
2022-08-16T12:52:23.000Z,302.65
2022-08-16T12:53:58.000Z,302.65
2022-08-16T12:56:07.000Z,302.77
2022-08-16T12:57:34.000Z,302.84
2022-08-16T12:59:41.000Z,302.84
2022-08-16T13:01:07.000Z,302.84
2022-08-16T13:03:14.000Z,302.77
2022-08-16T13:04:40.000Z,302.65
2022-08-16T13:06:47.000Z,302.52
2022-08-16T13:08:17.000Z,302.77
2022-08-16T13:10:24.000Z,302.96
2022-08-16T13:12:03.000Z,303.02
2022-08-16T13:14:10.000Z,303.21
2022-08-16T13:17:21.000Z,303.15
2022-08-16T13:18:51.000Z,303.09
2022-08-16T13:20:58.000Z,302.52
2022-08-16T13:22:25.000Z,302.27
2022-08-16T13:24:31.000Z,302.52
2022-08-16T13:25:59.000Z,302.77
2022-08-16T13:28:06.000Z,302.96
2022-08-16T13:29:39.000Z,303.21
2022-08-16T13:31:48.000Z,303.46
2022-08-16T13:33:16.000Z,303.4
2022-08-16T13:35:33.000Z,303.34
2022-08-16T13:36:59.000Z,303.52
2022-08-16T13:39:05.000Z,303.65
2022-08-16T13:40:32.000Z,303.59
2022-08-16T13:42:39.000Z,303.59
2022-08-16T13:44:07.000Z,303.71
2022-08-16T13:46:13.000Z,303.71
2022-08-16T13:47:40.000Z,303.84
2022-08-16T13:49:47.000Z,303.59
2022-08-16T13:51:13.000Z,303.4
2022-08-16T13:53:22.000Z,303.59
2022-08-16T13:56:14.000Z,303.21
2022-08-16T13:57:49.000Z,302.9
2022-08-16T14:00:41.000Z,302.02
2022-08-16T14:02:09.000Z,302.09
2022-08-16T14:04:15.000Z,301.96
2022-08-16T14:05:50.000Z,301.77
2022-08-16T14:07:56.000Z,301.4
2022-08-16T14:09:23.000Z,301.52
2022-08-16T14:11:32.000Z,302.15
2022-08-16T14:12:58.000Z,302.65
2022-08-16T14:15:05.000Z,303.02
2022-08-16T14:16:32.000Z,302.96
2022-08-16T14:18:39.000Z,303.09
2022-08-16T14:20:06.000Z,303.4
2022-08-16T14:22:23.000Z,303.46
2022-08-16T14:23:56.000Z,303.59
2022-08-16T14:26:02.000Z,303.65
2022-08-16T14:27:28.000Z,303.4
2022-08-16T14:29:34.000Z,303.71
2022-08-16T14:31:03.000Z,303.77
2022-08-16T14:33:09.000Z,303.71
2022-08-16T14:36:00.000Z,303.27
2022-08-16T14:37:27.000Z,303.15
2022-08-16T14:39:36.000Z,303.34
2022-08-16T14:41:03.000Z,303.34
2022-08-16T14:43:14.000Z,303.27
2022-08-16T14:44:40.000Z,303.34
2022-08-16T14:46:47.000Z,303.27
2022-08-16T14:48:13.000Z,303.15
2022-08-16T14:50:19.000Z,302.77
2022-08-16T14:51:48.000Z,302.46
2022-08-16T14:53:56.000Z,302.21
2022-08-16T14:55:23.000Z,301.9
2022-08-16T14:57:29.000Z,301.84
2022-08-16T14:58:56.000Z,301.84
2022-08-16T15:01:02.000Z,301.71
2022-08-16T15:02:29.000Z,301.84
2022-08-16T15:04:39.000Z,301.65
2022-08-16T15:06:14.000Z,301.59
2022-08-16T15:08:20.000Z,301.71
2022-08-16T15:10:04.000Z,301.9
2022-08-16T15:12:11.000Z,301.52
2022-08-16T15:15:20.000Z,301.46
2022-08-16T15:16:46.000Z,301.65
2022-08-16T15:18:53.000Z,301.46
2022-08-16T15:20:19.000Z,301.71
2022-08-16T15:22:26.000Z,301.71
2022-08-16T15:23:52.000Z,301.77
2022-08-16T15:25:58.000Z,301.71
2022-08-16T15:27:28.000Z,301.71
2022-08-16T15:29:40.000Z,302.15
2022-08-16T15:31:07.000Z,302.52
2022-08-16T15:33:13.000Z,302.46
2022-08-16T15:34:40.000Z,302.4
2022-08-16T15:36:47.000Z,302.59
2022-08-16T15:38:16.000Z,302.71
2022-08-16T15:41:03.000Z,302.84
2022-08-16T15:42:30.000Z,302.9
2022-08-16T15:44:38.000Z,302.96
2022-08-16T15:46:18.000Z,302.84
2022-08-16T15:48:59.000Z,302.52
2022-08-16T15:50:27.000Z,302.21
2022-08-16T15:52:34.000Z,301.96
2022-08-16T15:55:25.000Z,301.77
2022-08-16T15:56:59.000Z,301.65
2022-08-16T15:59:16.000Z,301.65
2022-08-16T16:00:42.000Z,301.65
2022-08-16T16:02:49.000Z,301.34
2022-08-16T16:04:16.000Z,301.21
2022-08-16T16:06:29.000Z,300.96
2022-08-16T16:07:56.000Z,300.9
2022-08-16T16:10:15.000Z,300.77
2022-08-16T16:11:43.000Z,300.65
2022-08-16T16:13:49.000Z,300.65
2022-08-16T16:15:16.000Z,300.71
2022-08-16T16:17:22.000Z,301.02
2022-08-16T16:18:49.000Z,301.15
2022-08-16T16:20:56.000Z,301.46
2022-08-16T16:22:23.000Z,301.71
2022-08-16T16:24:30.000Z,301.9
2022-08-16T16:26:00.000Z,302.02
2022-08-16T16:28:10.000Z,302.09
2022-08-16T16:29:37.000Z,302.15
2022-08-16T16:31:44.000Z,302.15
2022-08-16T16:34:48.000Z,302.09
2022-08-16T16:36:14.000Z,302.21
2022-08-16T16:38:21.000Z,302.46
2022-08-16T16:39:50.000Z,302.4
2022-08-16T16:41:58.000Z,302.15
2022-08-16T16:43:28.000Z,302.27
2022-08-16T16:45:37.000Z,302.34
2022-08-16T16:47:04.000Z,302.34
2022-08-16T16:49:10.000Z,302.46
2022-08-16T16:50:38.000Z,302.46
2022-08-16T16:52:49.000Z,302.52
2022-08-16T16:54:17.000Z,302.59
2022-08-16T16:56:32.000Z,302.52
2022-08-16T16:58:02.000Z,302.46
2022-08-16T17:00:10.000Z,302.4
2022-08-16T17:23:18.000Z,301.02
2022-08-16T17:25:22.000Z,300.9
2022-08-16T17:27:28.000Z,300.71
2022-08-16T17:40:52.000Z,299.65
2022-08-16T17:43:02.000Z,299.65
2022-08-16T17:44:29.000Z,299.65
2022-08-16T17:46:35.000Z,299.71
2022-08-16T17:48:17.000Z,299.71
2022-08-16T17:50:23.000Z,299.65
2022-08-16T17:51:51.000Z,299.52
2022-08-16T17:53:58.000Z,299.46
2022-08-16T17:55:24.000Z,299.34
2022-08-16T17:57:30.000Z,299.15
2022-08-16T17:58:57.000Z,299.15
2022-08-16T18:01:03.000Z,298.96
2022-08-16T18:02:30.000Z,298.9
2022-08-16T18:04:48.000Z,298.71
2022-08-16T18:06:15.000Z,298.65
2022-08-16T18:08:21.000Z,298.65
2022-08-16T18:09:48.000Z,298.65
2022-08-16T18:11:58.000Z,298.59
2022-08-16T18:14:49.000Z,298.27
2022-08-16T18:16:21.000Z,298.21
2022-08-16T18:18:27.000Z,298.09
2022-08-16T18:19:53.000Z,298.09
2022-08-16T18:22:00.000Z,297.9
2022-08-16T18:23:26.000Z,297.77
2022-08-16T18:25:32.000Z,297.46
2022-08-16T18:26:59.000Z,297.46
2022-08-16T18:29:29.000Z,297.27
2022-08-16T18:30:56.000Z,297.15
2022-08-16T18:33:09.000Z,296.96
2022-08-16T18:34:36.000Z,296.96
2022-08-16T18:36:42.000Z,296.9
2022-08-16T18:38:08.000Z,296.84
2022-08-16T18:40:15.000Z,296.71
2022-08-16T18:41:41.000Z,296.59
2022-08-16T18:43:47.000Z,296.4
2022-08-16T18:45:49.000Z,296.34
2022-08-16T18:47:55.000Z,296.21
2022-08-16T18:49:21.000Z,296.09
2022-08-16T18:51:27.000Z,295.84
2022-08-16T18:54:19.000Z,295.65
2022-08-16T18:55:45.000Z,295.52
2022-08-16T18:57:51.000Z,295.52
2022-08-16T18:59:18.000Z,295.59
2022-08-16T19:01:24.000Z,295.52
2022-08-16T19:02:51.000Z,295.4
2022-08-16T19:05:03.000Z,295.21
2022-08-16T19:06:29.000Z,295.15
2022-08-16T19:08:36.000Z,295.15
2022-08-16T19:10:02.000Z,295.09
2022-08-16T19:12:08.000Z,295.15
2022-08-16T19:13:35.000Z,295.27
2022-08-16T19:15:41.000Z,295.27
2022-08-16T19:17:07.000Z,295.21
2022-08-16T19:19:14.000Z,295.02
2022-08-16T19:20:40.000Z,294.9
2022-08-16T19:22:46.000Z,294.84
2022-08-16T19:24:29.000Z,294.77
2022-08-16T19:26:35.000Z,294.77
2022-08-16T19:28:02.000Z,294.71
2022-08-16T19:30:11.000Z,294.65
2022-08-16T19:33:02.000Z,294.65
2022-08-16T19:34:35.000Z,294.52
2022-08-16T19:36:41.000Z,294.46
2022-08-16T19:38:09.000Z,294.34
2022-08-16T19:40:15.000Z,294.15
2022-08-16T19:42:02.000Z,293.96
2022-08-16T19:44:08.000Z,293.77
2022-08-16T19:45:35.000Z,293.77
2022-08-16T19:47:47.000Z,293.71
2022-08-16T19:49:20.000Z,293.65
2022-08-16T19:51:26.000Z,293.59
2022-08-16T19:52:53.000Z,293.4
2022-08-16T19:54:59.000Z,293.34
2022-08-16T19:56:26.000Z,293.4
2022-08-16T19:58:32.000Z,293.4
2022-08-16T19:59:58.000Z,293.52
2022-08-16T20:02:15.000Z,293.4
2022-08-16T20:04:00.000Z,293.34
2022-08-16T20:06:07.000Z,293.09
2022-08-16T20:07:35.000Z,293.09
2022-08-16T20:09:41.000Z,293.02
2022-08-16T20:12:33.000Z,292.96
2022-08-16T20:13:59.000Z,293.02
2022-08-16T20:16:05.000Z,293.09
2022-08-16T20:17:32.000Z,292.96
2022-08-16T20:19:38.000Z,292.84
2022-08-16T20:21:05.000Z,292.84
2022-08-16T20:23:11.000Z,292.59
2022-08-16T20:24:49.000Z,292.59
2022-08-16T20:26:57.000Z,292.65
2022-08-16T20:28:25.000Z,292.65
2022-08-16T20:30:58.000Z,292.59
2022-08-16T20:32:25.000Z,292.59
2022-08-16T20:34:40.000Z,292.59
2022-08-16T20:36:07.000Z,292.46
2022-08-16T20:38:20.000Z,292.46
2022-08-16T20:39:46.000Z,292.46
2022-08-16T20:41:53.000Z,292.4
2022-08-16T20:43:19.000Z,292.34
2022-08-16T20:45:25.000Z,292.21
2022-08-16T20:46:52.000Z,292.21
2022-08-16T20:48:58.000Z,292.21
2022-08-16T20:51:50.000Z,292.15
2022-08-16T20:53:23.000Z,292.09
2022-08-16T20:55:29.000Z,292.02
2022-08-16T20:56:56.000Z,291.96
2022-08-16T20:59:02.000Z,291.84
2022-08-16T21:00:29.000Z,291.77
2022-08-16T21:02:35.000Z,291.59
2022-08-16T21:04:02.000Z,291.59
2022-08-16T21:06:08.000Z,291.52
2022-08-16T21:07:35.000Z,291.52
2022-08-16T21:09:41.000Z,291.4
2022-08-16T21:11:07.000Z,291.34
2022-08-16T21:13:16.000Z,291.27
2022-08-16T21:14:43.000Z,291.27
2022-08-16T21:16:49.000Z,291.21
2022-08-16T21:18:15.000Z,291.15
2022-08-16T21:20:22.000Z,291.15
2022-08-16T21:21:48.000Z,291.15
2022-08-16T21:23:54.000Z,291.09
2022-08-16T21:25:21.000Z,291.09
2022-08-16T21:27:27.000Z,291.15
2022-08-16T21:30:18.000Z,291.09
2022-08-16T21:31:55.000Z,291.09
2022-08-16T21:34:01.000Z,291.15
2022-08-16T21:35:28.000Z,291.09
2022-08-16T21:37:34.000Z,291.09
2022-08-16T21:39:00.000Z,290.96
2022-08-16T21:41:06.000Z,291.02
2022-08-16T21:42:33.000Z,291.02
2022-08-16T21:44:40.000Z,290.9
2022-08-16T21:46:07.000Z,290.96
2022-08-16T21:48:13.000Z,290.9
2022-08-16T21:49:39.000Z,290.84
2022-08-16T21:51:45.000Z,290.77
2022-08-16T21:53:12.000Z,290.71
2022-08-16T21:55:18.000Z,290.71
2022-08-16T21:56:45.000Z,290.84
2022-08-16T21:58:51.000Z,290.84
2022-08-16T22:00:18.000Z,290.77
2022-08-16T22:02:24.000Z,290.65
2022-08-16T22:06:06.000Z,290.46
2022-08-16T22:09:03.000Z,290.34
2022-08-16T22:10:29.000Z,290.27
2022-08-16T22:13:12.000Z,290.27
2022-08-16T22:14:38.000Z,290.21
2022-08-16T22:16:44.000Z,290.27
2022-08-16T22:18:11.000Z,290.21
2022-08-16T22:20:17.000Z,290.15
2022-08-16T22:21:44.000Z,290.21
2022-08-16T22:23:50.000Z,290.21
2022-08-16T22:25:22.000Z,290.09
2022-08-16T22:27:28.000Z,290.15
2022-08-16T22:28:55.000Z,290.09
2022-08-16T22:31:01.000Z,290.02
2022-08-16T22:32:27.000Z,290.02
2022-08-16T22:34:34.000Z,290.09
2022-08-16T22:36:00.000Z,290.02
2022-08-16T22:38:06.000Z,289.96
2022-08-16T22:40:21.000Z,289.96
2022-08-16T22:42:27.000Z,289.96
2022-08-16T22:43:53.000Z,289.96
2022-08-16T22:46:00.000Z,289.9
2022-08-16T22:48:51.000Z,289.9
2022-08-16T22:50:17.000Z,289.84
2022-08-16T22:52:23.000Z,289.9
2022-08-16T22:54:21.000Z,289.9
2022-08-16T22:56:52.000Z,289.77
2022-08-16T22:58:19.000Z,289.65
2022-08-16T23:00:40.000Z,289.59
2022-08-16T23:02:06.000Z,289.65
2022-08-16T23:04:12.000Z,289.59
2022-08-16T23:05:39.000Z,289.59
2022-08-16T23:07:45.000Z,289.59
2022-08-16T23:09:12.000Z,289.46
2022-08-16T23:11:18.000Z,289.34
2022-08-16T23:12:44.000Z,289.4
2022-08-16T23:14:50.000Z,289.34
2022-08-16T23:16:18.000Z,289.34
2022-08-16T23:18:24.000Z,289.27
2022-08-16T23:19:51.000Z,289.34
2022-08-16T23:21:57.000Z,289.34
2022-08-16T23:23:24.000Z,289.34
2022-08-16T23:25:30.000Z,289.34
2022-08-16T23:28:22.000Z,289.27
2022-08-16T23:29:48.000Z,289.21
2022-08-16T23:31:54.000Z,289.21
2022-08-16T23:33:21.000Z,289.21
2022-08-16T23:35:27.000Z,289.09
2022-08-16T23:37:09.000Z,289.09
2022-08-16T23:39:15.000Z,288.9
2022-08-16T23:40:42.000Z,288.9
2022-08-16T23:42:48.000Z,288.9
2022-08-16T23:44:25.000Z,288.9
2022-08-16T23:47:02.000Z,288.84
2022-08-16T23:48:29.000Z,288.9
2022-08-16T23:52:03.000Z,289.02
2022-08-16T23:53:30.000Z,288.9
2022-08-16T23:55:36.000Z,288.96
2022-08-16T23:57:03.000Z,289.02
2022-08-16T23:59:09.000Z,289.02
